Airport View

Enter AWOS ICAO identifier for current METAR.

ex. KFNL

KPIL 250053Z AUTO 14016KT 10SM SCT021 SCT027 BKN034 28/23 A2968 RMK AO2 SLP049 T02830233

25 May 2020 01:41

Frequency: 118.525

Phone: 956-233-5740

Other Area AWOS: KSPL - KBRO - KHRL - MMMA

TAF KBRO 242340Z 2500/2524 14015G20KT P6SM SCT035 BKN050 FM250100 13012KT P6SM SCT030 FM250500 15009KT P6SM BKN025 FM251400 15012G18KT P6SM SCT040